Time;durP1;ratioP1;P1;durP2;ratioP2;P2;SDS_P1;SDS_P2;PMS_P1;PMS_P2;Temp;Humidity;BMP_temperature;BMP_pressure;BME280_temperature;BME280_humidity;BME280_pressure;Samples;Min_cycle;Max_cycle;Signal;HPM_P1;HPM_P2
2023/05/12 05:00:59;;;;;;;;;6.00;3.00;;;;;14.97;52.38;101440.09;6185426;22;46513;-62
2023/05/12 05:03:24;;;;;;;;;6.33;3.67;;;;;14.97;52.83;101432.06;6245219;22;45286;-62
2023/05/12 05:05:49;;;;;;;;;4.00;2.33;;;;;14.99;52.37;101438.19;6245711;22;45978;-62
2023/05/12 05:08:15;;;;;;;;;3.00;3.00;;;;;15.00;53.00;101443.44;6244950;22;70744;-62
2023/05/12 05:10:40;;;;;;;;;3.67;3.00;;;;;15.03;52.37;101442.41;6245146;22;45205;-61
2023/05/12 05:13:05;;;;;;;;;5.67;3.00;;;;;15.01;52.55;101444.31;6243990;22;59194;-62
2023/05/12 05:15:32;;;;;;;;;7.33;3.33;;;;;15.07;52.68;101443.97;6245161;22;46286;-61
2023/05/12 05:17:58;;;;;;;;;3.33;3.00;;;;;15.09;52.57;101449.25;6244465;22;45263;-62
2023/05/12 05:20:24;;;;;;;;;5.67;2.33;;;;;15.06;52.36;101452.97;6245497;22;45561;-61
2023/05/12 05:22:49;;;;;;;;;5.33;2.00;;;;;15.02;52.62;101451.41;6245612;22;45169;-61
2023/05/12 05:25:14;;;;;;;;;5.67;3.00;;;;;15.04;52.58;101449.50;6245640;22;56599;-61
2023/05/12 05:27:40;;;;;;;;;6.00;4.33;;;;;15.05;53.00;101451.22;6244755;22;45333;-62
2023/05/12 05:30:07;;;;;;;;;4.67;3.67;;;;;15.09;52.51;101457.28;6245808;22;45692;-62
2023/05/12 05:32:38;;;;;;;;;4.00;4.00;;;;;15.18;52.35;101456.72;6245337;22;45450;-62
2023/05/12 05:35:04;;;;;;;;;4.33;4.33;;;;;15.16;52.83;101454.16;6246005;22;46270;-62
2023/05/12 05:37:30;;;;;;;;;2.33;2.33;;;;;15.22;53.12;101448.41;6246049;22;45649;-62
2023/05/12 05:39:55;;;;;;;;;4.33;3.33;;;;;15.36;52.26;101454.78;6245752;22;45349;-62
2023/05/12 05:42:21;;;;;;;;;4.67;4.67;;;;;15.39;52.33;101449.22;6245550;22;45255;-62
2023/05/12 05:44:46;;;;;;;;;3.67;3.67;;;;;15.46;52.37;101455.06;6243574;22;73251;-62
2023/05/12 05:47:11;;;;;;;;;5.67;4.00;;;;;15.52;52.06;101455.56;6243751;22;70665;-62
2023/05/12 05:49:37;;;;;;;;;3.00;3.00;;;;;15.57;52.49;101457.13;6218058;22;55092;-60
2023/05/12 05:52:02;;;;;;;;;5.00;4.00;;;;;15.61;52.16;101453.28;6245074;22;68342;-61
2023/05/12 05:54:27;;;;;;;;;6.33;4.67;;;;;15.65;51.88;101462.88;6243960;22;45755;-61
2023/05/12 05:56:53;;;;;;;;;5.00;5.00;;;;;15.70;51.87;101452.72;6243640;22;71931;-63
2023/05/12 05:59:18;;;;;;;;;4.00;4.00;;;;;15.74;51.59;101458.78;6246387;22;67251;-61
2023/05/12 06:01:44;;;;;;;;;7.33;5.00;;;;;15.78;51.69;101457.63;6245283;22;62264;-63
2023/05/12 06:04:09;;;;;;;;;4.00;3.00;;;;;15.75;51.42;101456.00;6246751;22;46023;-63
2023/05/12 06:06:35;;;;;;;;;4.33;3.00;;;;;15.76;51.35;101456.84;6219349;22;45273;-62
2023/05/12 06:09:00;;;;;;;;;4.00;4.00;;;;;15.78;51.21;101458.47;6246769;22;57467;-62
2023/05/12 06:11:26;;;;;;;;;3.00;3.00;;;;;15.81;51.15;101458.34;6247674;22;45212;-63
2023/05/12 06:13:51;;;;;;;;;5.00;3.00;;;;;15.84;51.42;101462.66;6245549;22;46060;-63
2023/05/12 06:16:16;;;;;;;;;4.33;4.33;;;;;15.91;51.25;101458.63;6246652;22;45215;-62
2023/05/12 06:18:42;;;;;;;;;4.00;4.00;;;;;16.02;50.89;101455.25;6246219;22;45291;-63
2023/05/12 06:21:08;;;;;;;;;6.00;3.00;;;;;16.17;50.69;101456.13;6246405;22;60661;-63
2023/05/12 06:23:33;;;;;;;;;5.67;4.67;;;;;16.25;50.14;101453.81;6246940;22;46822;-63
2023/05/12 06:25:59;;;;;;;;;4.00;4.00;;;;;16.32;49.99;101455.16;6245919;22;45204;-63
2023/05/12 06:28:24;;;;;;;;;5.67;5.00;;;;;16.45;49.94;101451.66;6246605;22;45306;-62
2023/05/12 06:30:50;;;;;;;;;4.00;3.00;;;;;16.54;49.37;101456.44;6245123;22;64020;-62
2023/05/12 06:33:15;;;;;;;;;3.67;2.00;;;;;16.91;49.52;101455.88;6244534;22;45331;-62
2023/05/12 06:35:40;;;;;;;;;3.33;2.00;;;;;17.54;48.31;101457.00;6245964;22;45326;-63
2023/05/12 06:38:06;;;;;;;;;2.67;2.67;;;;;18.14;47.38;101458.19;6245870;22;65518;-62
2023/05/12 06:40:31;;;;;;;;;6.67;3.33;;;;;18.81;47.28;101458.75;6242647;22;45272;-62
2023/05/12 06:42:57;;;;;;;;;5.00;3.33;;;;;19.51;46.09;101460.63;6242792;22;45334;-63
2023/05/12 06:45:22;;;;;;;;;2.33;2.33;;;;;20.29;45.47;101460.00;6216961;22;45269;-63
2023/05/12 06:47:48;;;;;;;;;5.00;3.33;;;;;20.80;43.97;101454.00;6244800;22;45478;-62
2023/05/12 06:50:15;;;;;;;;;3.33;3.33;;;;;20.98;43.46;101456.19;6219619;22;45300;-63
2023/05/12 06:52:41;;;;;;;;;3.00;2.67;;;;;20.97;42.55;101449.91;6218858;22;48082;-63
2023/05/12 06:55:07;;;;;;;;;5.00;4.00;;;;;20.76;42.60;101460.66;6246043;22;45325;-63
2023/05/12 06:57:32;;;;;;;;;5.00;3.33;;;;;20.63;43.29;101465.34;6219046;22;45374;-63
2023/05/12 06:59:59;;;;;;;;;2.00;2.00;;;;;20.62;42.32;101458.22;6244561;22;60915;-63
2023/05/12 07:02:24;;;;;;;;;5.33;2.33;;;;;20.79;41.97;101459.56;6244911;22;46279;-63
2023/05/12 07:04:49;;;;;;;;;2.00;2.00;;;;;20.82;42.28;101453.91;6217577;22;55469;-63
2023/05/12 07:07:15;;;;;;;;;2.67;2.00;;;;;21.14;41.84;101455.75;6245402;22;69353;-63
2023/05/12 07:09:41;;;;;;;;;7.00;2.00;;;;;21.84;42.43;101453.38;6245804;22;45296;-63
2023/05/12 07:12:07;;;;;;;;;2.00;2.00;;;;;22.58;41.37;101452.25;6246234;22;46063;-67
2023/05/12 07:14:32;;;;;;;;;3.33;3.00;;;;;23.21;40.17;101458.31;6218760;22;45182;-63
2023/05/12 07:16:57;;;;;;;;;3.33;3.33;;;;;23.70;39.48;101450.97;6244196;22;62811;-63
2023/05/12 07:19:23;;;;;;;;;2.00;2.00;;;;;24.24;38.42;101455.78;6245318;22;61542;-63
2023/05/12 07:21:48;;;;;;;;;4.00;4.00;;;;;24.45;37.51;101448.19;6243919;22;73079;-63
2023/05/12 07:24:14;;;;;;;;;2.33;2.33;;;;;24.80;37.42;101455.72;6245797;22;45200;-64
2023/05/12 07:26:39;;;;;;;;;5.67;3.00;;;;;25.10;37.26;101451.78;6218723;22;45244;-63
2023/05/12 07:29:06;;;;;;;;;3.67;2.33;;;;;25.12;36.34;101455.19;6244933;22;45212;-64
2023/05/12 07:31:32;;;;;;;;;3.67;3.00;;;;;24.92;36.29;101452.63;6246119;22;47063;-64
2023/05/12 07:33:57;;;;;;;;;4.00;3.00;;;;;24.63;36.83;101449.25;6246446;22;45330;-63
2023/05/12 07:36:23;;;;;;;;;3.67;3.67;;;;;24.30;36.68;101452.47;6217387;22;63151;-64
2023/05/12 07:38:48;;;;;;;;;3.00;3.00;;;;;23.92;36.21;101454.31;6219013;22;45558;-64
2023/05/12 07:41:14;;;;;;;;;3.67;3.67;;;;;23.53;36.94;101457.13;6245566;22;46339;-64
2023/05/12 07:43:39;;;;;;;;;3.00;3.00;;;;;23.13;37.04;101446.28;6245322;22;45290;-63
2023/05/12 07:46:05;;;;;;;;;4.67;4.00;;;;;22.82;37.85;101445.56;6245153;22;45272;-63
2023/05/12 07:48:30;;;;;;;;;3.00;3.00;;;;;22.81;37.98;101446.56;6245889;22;45346;-64
2023/05/12 07:50:56;;;;;;;;;3.67;3.33;;;;;22.88;38.20;101446.84;6245180;22;73403;-65
2023/05/12 07:53:21;;;;;;;;;4.00;4.00;;;;;22.88;38.34;101452.28;6246447;22;45352;-63
2023/05/12 07:55:46;;;;;;;;;5.67;3.67;;;;;23.04;38.39;101455.28;6245526;22;54766;-63
2023/05/12 07:58:12;;;;;;;;;3.33;3.00;;;;;23.30;38.79;101446.59;6245041;22;65630;-63
2023/05/12 08:00:37;;;;;;;;;4.00;4.00;;;;;23.49;37.64;101445.69;6245876;22;47356;-63
2023/05/12 08:03:04;;;;;;;;;3.00;3.00;;;;;23.38;37.98;101444.00;6218175;22;45296;-64
2023/05/12 08:05:30;;;;;;;;;3.00;2.00;;;;;23.32;37.96;101443.75;6246332;22;45889;-64
2023/05/12 08:07:55;;;;;;;;;3.00;3.00;;;;;23.30;38.55;101449.31;6168984;22;45359;-65
2023/05/12 08:10:21;;;;;;;;;3.67;3.00;;;;;23.54;38.35;101443.41;6218470;22;75633;-64
2023/05/12 08:12:46;;;;;;;;;3.67;3.00;;;;;24.01;38.17;101452.59;6219168;22;45198;-64
2023/05/12 08:15:12;;;;;;;;;5.00;4.00;;;;;24.25;37.45;101447.47;6246316;22;45113;-64
2023/05/12 08:17:37;;;;;;;;;3.33;3.33;;;;;24.36;37.19;101449.13;6244563;22;68341;-65
2023/05/12 08:20:03;;;;;;;;;3.67;3.67;;;;;24.19;37.29;101450.78;6245766;22;62302;-64
2023/05/12 08:22:29;;;;;;;;;4.00;3.33;;;;;24.15;37.33;101457.53;6246600;22;45597;-65
2023/05/12 08:24:55;;;;;;;;;4.67;4.33;;;;;23.99;37.37;101460.03;6245984;22;45260;-65
2023/05/12 08:27:20;;;;;;;;;5.67;4.67;;;;;23.72;37.79;101458.94;6245300;22;60383;-64
2023/05/12 08:29:45;;;;;;;;;3.00;3.00;;;;;23.29;38.04;101453.88;6245096;22;67861;-63
2023/05/12 08:32:11;;;;;;;;;4.67;3.33;;;;;22.77;38.49;101454.13;6245819;22;56919;-63
2023/05/12 08:34:36;;;;;;;;;6.33;5.00;;;;;22.26;39.73;101457.84;6245480;22;45319;-64
2023/05/12 08:37:02;;;;;;;;;5.00;4.00;;;;;21.72;40.52;101459.84;6245487;22;65714;-64
2023/05/12 08:39:30;;;;;;;;;4.00;3.00;;;;;21.20;41.68;101470.56;6192662;22;46230;-64
2023/05/12 08:42:29;;;;;;;;;6.00;4.00;;;;;20.57;43.95;101471.25;6217216;22;45382;-64
2023/05/12 08:44:55;;;;;;;;;5.00;5.00;;;;;20.06;44.43;101472.66;6245950;22;45685;-64
2023/05/12 08:47:21;;;;;;;;;5.67;5.67;;;;;19.77;46.14;101479.31;6246248;22;45492;-64
2023/05/12 08:49:59;;;;;;;;;5.00;5.00;;;;;19.57;47.33;101480.91;6244086;22;45296;-64
2023/05/12 08:52:26;;;;;;;;;6.33;6.00;;;;;19.43;46.87;101481.09;6245865;22;45721;-64
2023/05/12 08:54:52;;;;;;;;;10.00;7.00;;;;;19.25;46.88;101473.44;6246474;22;45240;-64
2023/05/12 08:57:20;;;;;;;;;6.00;6.00;;;;;19.11;48.38;101481.72;6218271;22;45235;-63
2023/05/12 08:59:46;;;;;;;;;9.00;6.67;;;;;18.94;49.14;101482.97;6218444;22;45241;-64
2023/05/12 09:02:12;;;;;;;;;9.00;6.33;;;;;18.75;49.38;101495.09;6245540;22;45362;-63
2023/05/12 09:04:38;;;;;;;;;13.00;7.00;;;;;18.56;50.85;101478.56;6218921;22;45274;-63
2023/05/12 09:07:05;;;;;;;;;8.00;8.00;;;;;18.42;51.64;101490.34;6246440;22;45344;-63
2023/05/12 09:09:33;;;;;;;;;13.00;10.67;;;;;18.32;51.53;101484.78;6193801;22;46213;-64
2023/05/12 09:12:00;;;;;;;;;14.00;13.00;;;;;18.31;52.07;101486.59;6245606;22;45282;-63
2023/05/12 09:14:26;;;;;;;;;12.33;9.33;;;;;18.27;51.79;101484.25;6218636;22;45340;-63
2023/05/12 09:16:56;;;;;;;;;11.33;11.33;;;;;18.35;53.40;101492.63;6243191;22;70405;-63
2023/05/12 09:19:22;;;;;;;;;12.00;11.00;;;;;18.28;52.31;101489.50;6194624;22;46473;-65
2023/05/12 09:21:47;;;;;;;;;13.67;13.67;;;;;18.17;53.47;101492.09;6244502;22;65577;-64
2023/05/12 09:24:13;;;;;;;;;13.00;13.00;;;;;18.14;53.46;101486.94;6245700;22;45328;-65
2023/05/12 09:26:50;;;;;;;;;17.67;14.33;;;;;18.09;54.61;101487.25;6244910;22;59604;-62
2023/05/12 09:29:15;;;;;;;;;17.33;14.67;;;;;18.10;54.27;101493.53;6246222;22;45870;-65
2023/05/12 09:31:51;;;;;;;;;17.67;14.33;;;;;18.13;55.08;101491.47;6244810;22;45291;-63
2023/05/12 09:34:17;;;;;;;;;13.33;11.67;;;;;18.19;55.04;101479.41;6219967;22;45380;-64
2023/05/12 09:36:44;;;;;;;;;17.00;14.33;;;;;18.28;56.10;101488.66;6246890;22;45175;-64
2023/05/12 09:39:10;;;;;;;;;18.33;12.67;;;;;18.39;56.50;101491.41;6220941;22;45363;-65
2023/05/12 09:41:36;;;;;;;;;13.33;12.67;;;;;18.59;56.55;101491.81;6246626;22;45209;-63
2023/05/12 09:44:02;;;;;;;;;15.67;13.00;;;;;18.86;57.02;101483.53;6247750;22;45227;-63
2023/05/12 09:46:27;;;;;;;;;13.00;13.00;;;;;19.12;56.37;101484.28;6247233;22;45387;-65
2023/05/12 09:48:56;;;;;;;;;16.00;12.33;;;;;19.33;55.08;101475.53;6243998;22;46205;-65
2023/05/12 09:51:22;;;;;;;;;16.00;10.00;;;;;19.44;54.73;101480.97;6247243;22;45334;-65
2023/05/12 09:53:48;;;;;;;;;8.00;8.00;;;;;19.45;55.12;101479.13;6219120;22;45425;-65
2023/05/12 09:56:15;;;;;;;;;6.33;6.00;;;;;19.54;54.44;101483.81;6220238;22;45384;-65
2023/05/12 09:58:45;;;;;;;;;8.00;8.00;;;;;19.53;54.29;101482.13;6218242;22;46873;-63
2023/05/12 10:01:18;;;;;;;;;10.33;8.00;;;;;19.45;55.07;101482.72;6246888;22;45334;-65
2023/05/12 10:03:51;;;;;;;;;7.00;6.00;;;;;19.40;54.18;101486.72;6246678;22;45279;-64
2023/05/12 10:06:37;;;;;;;;;7.67;6.00;;;;;19.34;53.64;101480.81;6247297;22;45213;-65
2023/05/12 10:09:19;;;;;;;;;4.33;4.33;;;;;19.24;53.66;101476.25;6246355;22;45319;-65
2023/05/12 10:11:45;;;;;;;;;4.67;3.67;;;;;19.21;53.12;101474.66;6219287;22;45729;-65
2023/05/12 10:14:12;;;;;;;;;6.00;4.00;;;;;19.38;53.83;101476.06;6247112;22;45284;-65
2023/05/12 10:16:39;;;;;;;;;1.00;1.00;;;;;19.63;53.11;101469.63;6246541;22;45389;-65
2023/05/12 10:19:05;;;;;;;;;4.33;4.33;;;;;19.79;52.77;101471.09;6247319;22;46590;-65
2023/05/12 10:21:32;;;;;;;;;6.67;5.67;;;;;19.71;52.33;101471.75;6247050;22;45267;-65
2023/05/12 10:23:58;;;;;;;;;6.33;3.00;;;;;19.72;52.05;101469.88;6246868;22;45325;-65
2023/05/12 10:26:24;;;;;;;;;9.33;5.00;;;;;19.73;52.61;101468.91;6219018;22;45508;-65
2023/05/12 10:28:51;;;;;;;;;5.00;4.00;;;;;19.79;52.46;101471.09;6246233;22;46296;-65
2023/05/12 10:31:16;;;;;;;;;5.67;4.33;;;;;19.79;51.99;101471.97;6219229;22;45259;-65
2023/05/12 10:33:41;;;;;;;;;6.00;5.33;;;;;19.75;51.69;101472.34;6246132;22;45257;-63
2023/05/12 10:36:19;;;;;;;;;6.00;3.00;;;;;19.72;51.79;101467.19;6247007;22;47218;-65
2023/05/12 10:38:48;;;;;;;;;3.67;3.67;;;;;19.64;50.81;101470.47;6246468;22;45243;-65
2023/05/12 10:41:14;;;;;;;;;5.00;4.33;;;;;19.60;51.14;101475.25;6245206;22;45219;-65
2023/05/12 10:43:47;;;;;;;;;4.33;4.33;;;;;19.71;51.29;101462.75;6246209;22;45200;-65
2023/05/12 10:46:12;;;;;;;;;5.00;3.67;;;;;19.84;51.06;101466.25;6194948;22;45298;-65
2023/05/12 10:48:48;;;;;;;;;6.00;4.00;;;;;19.95;50.22;101465.41;6246853;22;45367;-65
2023/05/12 10:51:18;;;;;;;;;5.00;4.00;;;;;19.98;50.15;101459.75;6246500;22;45477;-66
2023/05/12 10:53:44;;;;;;;;;3.33;3.33;;;;;19.97;49.57;101467.00;6218478;22;45363;-65
2023/05/12 10:56:09;;;;;;;;;4.67;4.67;;;;;19.98;49.62;101463.31;6220247;22;45235;-65
2023/05/12 10:58:34;;;;;;;;;4.00;4.00;;;;;20.03;50.28;101457.56;6246726;22;45510;-65
2023/05/12 11:01:04;;;;;;;;;4.00;4.00;;;;;20.11;49.38;101456.94;6245154;22;71138;-65
2023/05/12 11:03:30;;;;;;;;;4.67;4.00;;;;;20.08;49.29;101465.28;6246586;22;45233;-65
2023/05/12 11:06:00;;;;;;;;;3.00;3.00;;;;;20.04;48.90;101461.97;6193353;22;47105;-65
2023/05/12 11:08:26;;;;;;;;;4.00;4.00;;;;;19.95;49.53;101451.91;6246443;22;45287;-66
2023/05/12 11:10:52;;;;;;;;;4.33;3.00;;;;;19.85;49.54;101451.78;6218753;22;45277;-66
2023/05/12 11:13:18;;;;;;;;;4.67;4.67;;;;;19.77;50.16;101443.41;6246938;22;45220;-65
2023/05/12 11:15:43;;;;;;;;;4.00;2.33;;;;;19.81;50.35;101442.16;6246753;22;45177;-65
2023/05/12 11:18:11;;;;;;;;;6.33;5.67;;;;;19.87;50.34;101447.13;6246705;22;45914;-65
2023/05/12 11:20:36;;;;;;;;;4.00;3.00;;;;;19.82;50.14;101446.63;6246629;22;45232;-65
2023/05/12 11:23:02;;;;;;;;;4.00;4.00;;;;;19.79;50.13;101447.69;6246258;22;60366;-65
2023/05/12 11:25:28;;;;;;;;;3.00;3.00;;;;;19.70;49.75;101451.13;6246191;22;45351;-65
2023/05/12 11:27:53;;;;;;;;;5.00;4.67;;;;;19.60;50.31;101442.88;6246015;22;45372;-64
2023/05/12 11:30:18;;;;;;;;;2.33;2.33;;;;;19.64;50.46;101440.81;6246994;22;45350;-63
2023/05/12 11:32:44;;;;;;;;;6.33;2.00;;;;;19.89;49.73;101445.13;6246710;22;45337;-64
2023/05/12 11:35:13;;;;;;;;;3.00;3.00;;;;;20.21;49.13;101440.84;6246002;22;62890;-64
2023/05/12 11:37:40;;;;;;;;;5.00;4.33;;;;;20.49;49.36;101434.94;6218527;22;46729;-64
2023/05/12 11:40:19;;;;;;;;;3.33;3.33;;;;;20.79;47.35;101427.13;6246338;22;45550;-64
2023/05/12 11:42:50;;;;;;;;;4.33;3.00;;;;;20.92;47.51;101433.19;6246073;22;45268;-64
2023/05/12 11:45:22;;;;;;;;;5.67;4.00;;;;;20.78;47.91;101436.19;6220291;22;45332;-64
2023/05/12 11:47:48;;;;;;;;;7.00;5.00;;;;;20.56;48.19;101432.56;6244213;22;45329;-64
2023/05/12 11:50:20;;;;;;;;;3.00;3.00;;;;;20.32;47.97;101428.22;6218884;22;69800;-63
2023/05/12 11:52:45;;;;;;;;;4.00;2.67;;;;;20.10;48.70;101436.31;6246057;22;45245;-64
2023/05/12 11:55:11;;;;;;;;;7.00;3.00;;;;;19.91;48.78;101423.44;6192790;22;69810;-64
2023/05/12 11:57:36;;;;;;;;;3.00;3.00;;;;;19.83;49.91;101426.75;6244881;22;74430;-64
2023/05/12 12:00:04;;;;;;;;;2.33;2.33;;;;;19.80;49.59;101424.25;6246849;22;45346;-64
2023/05/12 12:02:29;;;;;;;;;2.67;2.67;;;;;19.75;49.86;101430.03;6245394;22;45527;-63
2023/05/12 12:04:55;;;;;;;;;4.33;4.00;;;;;19.65;49.86;101427.19;6218934;22;45289;-63
2023/05/12 12:07:31;;;;;;;;;5.00;5.00;;;;;19.43;49.90;101438.78;6246828;22;46190;-63
2023/05/12 12:09:57;;;;;;;;;4.00;3.00;;;;;19.12;50.30;101434.91;6245714;22;45287;-64
2023/05/12 12:12:22;;;;;;;;;2.33;2.33;;;;;18.85;51.09;101434.16;6246435;22;45123;-63
2023/05/12 12:14:48;;;;;;;;;6.00;4.67;;;;;18.59;51.72;101441.50;6246370;22;45362;-64
2023/05/12 12:17:13;;;;;;;;;5.00;5.00;;;;;18.49;52.33;101432.38;6244342;22;73743;-64
2023/05/12 12:19:38;;;;;;;;;4.33;4.00;;;;;18.42;53.32;101433.78;6191808;22;49794;-63
2023/05/12 12:22:04;;;;;;;;;7.33;6.00;;;;;18.27;53.60;101447.41;6245866;22;45464;-63
2023/05/12 12:24:29;;;;;;;;;6.00;4.00;;;;;18.17;53.57;101447.22;6245915;22;45318;-63
2023/05/12 12:26:55;;;;;;;;;6.67;5.00;;;;;17.69;54.50;101438.91;6243306;22;45347;-63
2023/05/12 12:29:22;;;;;;;;;4.67;4.67;;;;;18.01;54.31;101435.81;6245899;22;45257;-64
2023/05/12 12:31:48;;;;;;;;;5.00;5.00;;;;;17.89;54.40;101442.91;6245867;22;45235;-64
2023/05/12 12:34:13;;;;;;;;;6.00;4.67;;;;;17.69;55.97;101447.84;6218635;22;45273;-63
2023/05/12 12:36:38;;;;;;;;;4.00;4.00;;;;;17.61;56.12;101447.53;6217932;22;46964;-64
2023/05/12 12:39:04;;;;;;;;;9.67;6.00;;;;;17.61;55.71;101446.66;6244646;22;72538;-63
2023/05/12 12:41:29;;;;;;;;;7.33;7.33;;;;;17.68;56.24;101448.81;6245560;22;60463;-63
2023/05/12 12:43:54;;;;;;;;;6.67;5.67;;;;;17.77;55.94;101451.81;6244224;22;60943;-64
2023/05/12 12:46:20;;;;;;;;;6.33;4.33;;;;;17.84;55.85;101445.91;6217676;22;45287;-63
2023/05/12 12:48:45;;;;;;;;;8.00;6.67;;;;;17.88;55.75;101443.88;6245115;22;45259;-63
2023/05/12 12:51:11;;;;;;;;;7.33;6.33;;;;;17.98;55.71;101449.50;6218953;22;45313;-63
2023/05/12 12:53:36;;;;;;;;;4.67;4.67;;;;;18.10;55.53;101448.63;6216361;22;65219;-63
2023/05/12 12:56:02;;;;;;;;;5.00;5.00;;;;;18.28;55.12;101446.44;6245310;22;63171;-63
2023/05/12 12:58:28;;;;;;;;;3.67;3.67;;;;;18.49;54.98;101445.84;6218844;22;45371;-64
2023/05/12 13:00:53;;;;;;;;;7.33;6.33;;;;;18.61;54.23;101436.84;6192662;22;45273;-64
2023/05/12 13:03:18;;;;;;;;;10.00;6.00;;;;;18.65;54.28;101438.31;6244867;22;60427;-64
2023/05/12 13:05:44;;;;;;;;;6.00;5.67;;;;;18.60;54.20;101443.19;6217493;22;45898;-64
2023/05/12 13:08:09;;;;;;;;;7.00;5.00;;;;;18.51;54.14;101444.75;6244705;22;48402;-64
2023/05/12 13:10:35;;;;;;;;;5.67;4.67;;;;;18.47;54.86;101445.97;6243605;22;45319;-64
2023/05/12 13:13:00;;;;;;;;;5.00;5.00;;;;;18.47;54.27;101439.69;6245938;22;45452;-64
2023/05/12 13:15:25;;;;;;;;;7.67;4.67;;;;;18.45;54.05;101444.34;6191998;22;45492;-64
2023/05/12 13:17:51;;;;;;;;;5.00;5.00;;;;;18.43;53.78;101435.50;6245687;22;45250;-64
2023/05/12 13:20:16;;;;;;;;;4.00;4.00;;;;;18.27;53.81;101439.31;6217962;22;45306;-64
2023/05/12 13:22:42;;;;;;;;;5.00;4.00;;;;;18.22;54.17;101438.78;6245791;22;45296;-66
2023/05/12 13:25:08;;;;;;;;;4.00;3.00;;;;;18.14;54.23;101442.03;6217634;22;45264;-64
2023/05/12 13:27:34;;;;;;;;;3.00;3.00;;;;;18.09;54.18;101441.50;6219499;22;45611;-64
2023/05/12 13:30:02;;;;;;;;;3.00;3.00;;;;;18.13;54.24;101444.84;6244983;22;45509;-64
2023/05/12 13:32:28;;;;;;;;;2.33;2.33;;;;;18.26;54.46;101436.75;6219656;22;45273;-64
2023/05/12 13:34:53;;;;;;;;;2.33;2.33;;;;;18.50;54.32;101445.72;6216338;22;47131;-64
2023/05/12 13:37:18;;;;;;;;;3.00;3.00;;;;;19.02;53.54;101437.47;6192874;22;45297;-64
2023/05/12 13:39:44;;;;;;;;;8.67;7.00;;;;;19.74;53.18;101432.84;6243743;22;56846;-64
2023/05/12 13:42:09;;;;;;;;;6.33;5.33;;;;;20.35;50.10;101427.09;6246141;22;45381;-64
2023/05/12 13:44:34;;;;;;;;;1.33;1.33;;;;;20.78;49.16;101423.56;6244438;22;45333;-64
2023/05/12 13:47:00;;;;;;;;;7.00;6.00;;;;;20.88;48.71;101417.38;6244538;22;69030;-64
2023/05/12 13:49:25;;;;;;;;;3.00;3.00;;;;;20.73;47.47;101427.63;6244287;22;59571;-64
2023/05/12 13:51:50;;;;;;;;;3.00;3.00;;;;;20.39;48.44;101417.75;6244922;22;49568;-64
2023/05/12 13:54:16;;;;;;;;;3.33;2.00;;;;;19.98;49.65;101422.81;6216557;22;61751;-64
2023/05/12 13:56:41;;;;;;;;;6.00;5.00;;;;;19.67;50.07;101427.06;6243564;22;45342;-63
2023/05/12 13:59:08;;;;;;;;;32.33;30.33;;;;;19.41;50.88;101421.00;6245153;22;45234;-64
2023/05/12 14:01:33;;;;;;;;;7.67;5.33;;;;;19.18;51.84;101429.06;6218685;22;45299;-63
2023/05/12 14:03:59;;;;;;;;;1.33;1.33;;;;;18.98;51.76;101428.75;6243205;22;58810;-64
2023/05/12 14:06:24;;;;;;;;;6.00;6.00;;;;;18.82;52.33;101428.97;6216917;22;45311;-63
2023/05/12 14:08:49;;;;;;;;;2.00;2.00;;;;;18.76;52.66;101432.16;6244484;22;45318;-64
2023/05/12 14:11:15;;;;;;;;;36.67;30.67;;;;;18.72;52.65;101427.97;6244022;22;68905;-64
2023/05/12 14:13:41;;;;;;;;;20.00;17.00;;;;;18.67;52.79;101431.00;6244209;22;45595;-64
2023/05/12 14:16:06;;;;;;;;;3.00;3.00;;;;;18.57;53.62;101440.75;6245367;22;45204;-64
2023/05/12 14:18:32;;;;;;;;;3.00;3.00;;;;;18.39;54.98;101436.72;6246028;22;45243;-64
2023/05/12 14:20:57;;;;;;;;;1.67;1.67;;;;;18.12;56.89;101445.81;6246708;22;45332;-64
2023/05/12 14:23:23;;;;;;;;;2.00;2.00;;;;;17.92;56.78;101433.75;6244488;22;45426;-64
2023/05/12 14:25:48;;;;;;;;;2.67;1.33;;;;;17.76;57.50;101436.69;6244587;22;71975;-64
2023/05/12 14:28:13;;;;;;;;;1.00;1.00;;;;;17.65;57.82;101445.47;6246246;22;45653;-64
2023/05/12 14:30:39;;;;;;;;;3.33;3.00;;;;;17.59;58.16;101437.84;6245662;22;45281;-64
2023/05/12 14:33:05;;;;;;;;;1.67;1.67;;;;;17.57;58.64;101440.63;6246150;22;45488;-64
2023/05/12 14:35:30;;;;;;;;;1.67;1.67;;;;;17.58;58.82;101441.50;6245448;22;45248;-64
2023/05/12 14:37:56;;;;;;;;;3.00;2.00;;;;;17.56;58.35;101438.94;6246041;22;45311;-64
2023/05/12 14:40:22;;;;;;;;;1.67;1.00;;;;;17.55;59.41;101441.69;6245999;22;45602;-64
2023/05/12 14:42:47;;;;;;;;;0.67;0.67;;;;;17.58;58.73;101441.50;6245688;22;46128;-64
2023/05/12 14:45:13;;;;;;;;;4.00;1.67;;;;;17.67;59.04;101439.03;6246314;22;45515;-64
2023/05/12 14:47:38;;;;;;;;;2.00;2.00;;;;;17.82;58.82;101441.59;6244501;22;62878;-64
2023/05/12 14:50:04;;;;;;;;;3.00;3.00;;;;;17.96;58.57;101433.44;6243246;22;55079;-64
2023/05/12 14:52:32;;;;;;;;;2.33;2.33;;;;;18.09;58.22;101436.13;6246194;22;45171;-64
2023/05/12 14:54:58;;;;;;;;;3.00;2.00;;;;;18.16;57.49;101433.84;6244999;22;45402;-64
2023/05/12 14:57:23;;;;;;;;;4.67;3.33;;;;;18.26;58.02;101439.44;6246229;22;48576;-64
2023/05/12 14:59:52;;;;;;;;;2.67;2.00;;;;;18.41;57.18;101435.63;6243413;22;45335;-64
2023/05/12 15:02:17;;;;;;;;;3.00;3.00;;;;;18.63;56.52;101436.72;6245824;22;46919;-64
2023/05/12 15:04:43;;;;;;;;;3.67;2.00;;;;;18.96;55.98;101427.13;6217518;22;45316;-64
2023/05/12 15:07:08;;;;;;;;;5.00;3.00;;;;;19.19;55.81;101428.09;6245933;22;65548;-64
2023/05/12 15:09:33;;;;;;;;;4.00;4.00;;;;;19.51;55.38;101422.84;6245434;22;58019;-64
2023/05/12 15:11:59;;;;;;;;;3.00;3.00;;;;;19.85;54.28;101424.78;6218777;22;46750;-64
2023/05/12 15:14:24;;;;;;;;;6.00;4.00;;;;;20.08;54.93;101424.78;6245844;22;45750;-65
2023/05/12 15:16:51;;;;;;;;;2.00;2.00;;;;;20.48;53.11;101424.22;6245019;22;62509;-64
2023/05/12 15:19:16;;;;;;;;;4.00;2.00;;;;;20.74;52.24;101421.22;6218474;22;45206;-65
2023/05/12 15:21:41;;;;;;;;;3.33;3.33;;;;;20.97;51.11;101422.00;6245832;22;46045;-64
2023/05/12 15:24:07;;;;;;;;;1.67;1.67;;;;;21.02;50.48;101414.38;6244946;22;69554;-64
2023/05/12 15:26:32;;;;;;;;;4.67;2.33;;;;;21.03;49.99;101421.50;6219299;22;45481;-64
2023/05/12 15:28:58;;;;;;;;;1.00;1.00;;;;;20.97;48.42;101417.44;6217548;22;45515;-65
2023/05/12 15:31:24;;;;;;;;;2.00;2.00;;;;;20.86;49.25;101414.81;6218546;22;46603;-63
2023/05/12 15:33:50;;;;;;;;;1.33;1.33;;;;;20.76;49.89;101411.16;6218984;22;45342;-63
2023/05/12 15:36:15;;;;;;;;;3.00;3.00;;;;;20.73;49.42;101417.69;6246970;22;45234;-63
2023/05/12 15:38:41;;;;;;;;;2.00;2.00;;;;;20.62;49.12;101412.28;6244366;22;69820;-64
2023/05/12 15:41:06;;;;;;;;;2.00;2.00;;;;;20.33;50.19;101413.69;6246128;22;46193;-65
2023/05/12 15:43:31;;;;;;;;;2.67;2.00;;;;;20.14;50.28;101408.06;6245573;22;72413;-64
2023/05/12 15:45:57;;;;;;;;;1.67;1.67;;;;;19.99;50.95;101416.44;6217177;22;61327;-65
2023/05/12 15:48:22;;;;;;;;;1.00;1.00;;;;;19.94;50.40;101407.00;6246796;22;45378;-65
2023/05/12 15:50:48;;;;;;;;;1.00;1.00;;;;;20.15;49.62;101410.69;6245909;22;47868;-65
2023/05/12 15:53:13;;;;;;;;;2.75;1.00;;;;;20.26;49.23;101423.28;6217904;22;63959;-65
2023/05/12 15:55:39;;;;;;;;;1.00;1.00;;;;;20.32;48.77;101406.59;6217423;22;61342;-65
2023/05/12 15:58:04;;;;;;;;;1.00;1.00;;;;;20.36;49.50;101415.28;6246119;22;45305;-65
2023/05/12 16:00:30;;;;;;;;;1.33;1.33;;;;;20.17;49.33;101416.78;6246586;22;46011;-65
2023/05/12 16:02:55;;;;;;;;;2.00;2.00;;;;;20.00;49.63;101411.91;6244193;22;45345;-64
2023/05/12 16:05:22;;;;;;;;;1.33;1.33;;;;;20.05;49.04;101417.81;6245479;22;45257;-65
2023/05/12 16:07:48;;;;;;;;;1.33;1.33;;;;;19.88;49.08;101416.44;6245527;22;45481;-65
2023/05/12 16:10:13;;;;;;;;;2.33;2.00;;;;;19.66;48.96;101415.41;6245562;22;63436;-65
2023/05/12 16:12:39;;;;;;;;;1.33;1.33;;;;;19.26;50.27;101417.69;6217863;22;65505;-65
2023/05/12 16:15:05;;;;;;;;;2.00;2.00;;;;;19.09;50.67;101416.28;6218530;22;45305;-65
2023/05/12 16:17:30;;;;;;;;;2.00;2.00;;;;;19.19;50.26;101406.50;6246059;22;45303;-65
2023/05/12 16:19:56;;;;;;;;;1.00;1.00;;;;;19.14;50.98;101409.53;6245919;22;45286;-65